Terminal Aerodrome Forecast
Issued by NWS Charleston, SC

Home | Current Version | Previous Version | Text Only | Print | Product List | Glossary On
Versions: 1 2 3 4 5 6 7 8 9 10 11 12 13 14 15 16 17 18 19 20
705
FTUS42 KCHS 011738
TAFCHS
TAF
KCHS 011738Z 0118/0218 21014G22KT P6SM SCT035
     FM020200 22012KT P6SM BKN150
     FM020600 23012G18KT P6SM VCSH SCT040 BKN080
      TEMPO 0207/0209 6SM SHRA BR BKN035
     FM021000 27009KT P6SM BKN035
     FM021300 32012G18KT P6SM BKN035=

USA.gov is the U.S. government's official web portal to all federal, state and local government web resources and services.